Hyundai Forward — 3EJY9 — position and weather

sailwx.info

Track history (hours):
 
Tides and Currents Weather Stations Pressure Air Temp Water Temp Dewpoint Dewpoint Depression Visibility Wind Speed Wind Dir Waves Ship Positions

Hyundai Forward

Last reported at 2014-Jul-30 18:26 UTC. Time now 2014-Jul-30 19:13 UTC.
Position N 30°22' E 123°04'.

Length 294 m; draft 10.8 m.

Type: Ship (hazmat cat A). MMSI: 372652000.

Date/timePositionNaut miles runAvg speedWind from/ knotsBaromVisibWave heightAir tempDewpointWater temp
2014-Jul-30 18:26N 30°22' E 123°04'1 1.2
2014-Jul-30 17:32N 30°21' E 123°04'2 1.8
2014-Jul-30 16:32N 30°19' E 123°05'6 0.6
2014-Jul-30 07:04N 30°14' E 123°08'1 0.9
2014-Jul-30 06:24N 30°14' E 123°08'11 3.7
2014-Jul-30 03:26N 30°05' E 123°00'1112.0
2014-Jul-30 02:33N 29°57' E 122°52'1311.6
2014-Jul-30 01:26N 29°47' E 122°43'910.6
2014-Jul-30 00:33N 29°41' E 122°35'1010.3
2014-Jul-29 23:33N 29°43' E 122°24'1111.4
2014-Jul-29 22:33N 29°49' E 122°13'1312.8
2014-Jul-29 21:34N 29°56' E 122°01'7 7.4
2014-Jul-29 20:33N 29°56' E 121°52'0 0.0
2014-Jul-29 19:33N 29°56' E 121°52'0 0.0
2014-Jul-29 18:27N 29°56' E 121°52'0 0.0
2014-Jul-29 17:33N 29°56' E 121°52'0 0.0
2014-Jul-29 16:33N 29°56' E 121°52'0 0.0
2014-Jul-29 15:27N 29°56' E 121°52'0 0.0
2014-Jul-29 14:33N 29°56' E 121°52'0 0.0
2014-Jul-29 13:33N 29°56' E 121°52'0 0.0
2014-Jul-29 12:33N 29°56' E 121°52'1 0.5
2014-Jul-29 11:33N 29°56' E 121°53'8 7.6
2014-Jul-29 10:33N 29°56' E 122°01'1111.3
2014-Jul-29 09:33N 29°50' E 122°13'1110.5
2014-Jul-29 08:33N 29°44' E 122°23'1211.5
2014-Jul-29 07:33N 29°41' E 122°35'1311.8
2014-Jul-29 06:27N 29°28' E 122°37'13 4.3
2014-Jul-29 03:26N 29°15' E 122°37'5 5.2
2014-Jul-29 02:29N 29°10' E 122°38'0 0.4
2014-Jul-29 01:33N 29°10' E 122°38'9 6.6
2014-Jul-29 00:12N 29°02' E 122°34'39113.6
2014-Jul-27 19:25N 22°57' E 119°56'1315.5
2014-Jul-27 18:33N 22°45' E 120°03'1514.8
2014-Jul-27 17:33N 22°32' E 120°11'8 7.6
2014-Jul-27 16:34N 22°34' E 120°19'0 0.0
2014-Jul-27 15:30N 22°34' E 120°19'0 0.0
2014-Jul-27 14:30N 22°34' E 120°19'0 0.0
2014-Jul-27 13:30N 22°34' E 120°19'0 0.0
2014-Jul-27 12:30N 22°34' E 120°19'0 0.0
2014-Jul-27 11:24N 22°34' E 120°19'0 0.0
2014-Jul-27 10:30N 22°34' E 120°19'0 0.0
2014-Jul-27 09:30N 22°34' E 120°19'0 0.0
2014-Jul-27 08:18N 22°34' E 120°19'0 0.0
2014-Jul-27 07:12N 22°34' E 120°19'0 0.0
2014-Jul-27 06:30N 22°34' E 120°19'0 0.0
2014-Jul-27 05:30N 22°34' E 120°19'0 0.0
2014-Jul-27 04:30N 22°34' E 120°19'0 0.0
2014-Jul-27 03:30N 22°34' E 120°19'0 0.0
2014-Jul-27 02:30N 22°34' E 120°19'0 0.0
2014-Jul-27 01:24N 22°34' E 120°19'0 0.1
2014-Jul-27 00:33N 22°34' E 120°19'3 3.4
2014-Jul-26 23:33N 22°32' E 120°16'5 5.2
2014-Jul-26 22:33N 22°31' E 120°10'1312.9
2014-Jul-26 21:33N 22°43' E 120°04'1313.2
2014-Jul-26 20:33N 22°55' E 119°57'  
Track history (hours):
 
Tides and Currents Weather Stations Pressure Air Temp Water Temp Dewpoint Dewpoint Depression Visibility Wind Speed Wind Dir Waves Ship Positions

Hyundai Forward

Last reported at 2014-Jul-30 18:26 UTC. Time now 2014-Jul-30 19:13 UTC.
Position N 30°22' E 123°04'.

Length 294 m; draft 10.8 m.

Type: Ship (hazmat cat A). MMSI: 372652000.

Date/timePositionNaut miles runAvg speedWind from/ knotsBaromVisibWave heightAir tempDewpointWater temp
2014-Jul-30 18:26N 30°22' E 123°04'1 1.2
2014-Jul-30 17:32N 30°21' E 123°04'2 1.8
2014-Jul-30 16:32N 30°19' E 123°05'6 0.6
2014-Jul-30 07:04N 30°14' E 123°08'1 0.9
2014-Jul-30 06:24N 30°14' E 123°08'11 3.7
2014-Jul-30 03:26N 30°05' E 123°00'1112.0
2014-Jul-30 02:33N 29°57' E 122°52'1311.6
2014-Jul-30 01:26N 29°47' E 122°43'910.6
2014-Jul-30 00:33N 29°41' E 122°35'1010.3
2014-Jul-29 23:33N 29°43' E 122°24'1111.4
2014-Jul-29 22:33N 29°49' E 122°13'1312.8
2014-Jul-29 21:34N 29°56' E 122°01'7 7.4
2014-Jul-29 20:33N 29°56' E 121°52'0 0.0
2014-Jul-29 19:33N 29°56' E 121°52'0 0.0
2014-Jul-29 18:27N 29°56' E 121°52'0 0.0
2014-Jul-29 17:33N 29°56' E 121°52'0 0.0
2014-Jul-29 16:33N 29°56' E 121°52'0 0.0
2014-Jul-29 15:27N 29°56' E 121°52'0 0.0
2014-Jul-29 14:33N 29°56' E 121°52'0 0.0
2014-Jul-29 13:33N 29°56' E 121°52'0 0.0
2014-Jul-29 12:33N 29°56' E 121°52'1 0.5
2014-Jul-29 11:33N 29°56' E 121°53'8 7.6
2014-Jul-29 10:33N 29°56' E 122°01'1111.3
2014-Jul-29 09:33N 29°50' E 122°13'1110.5
2014-Jul-29 08:33N 29°44' E 122°23'1211.5
2014-Jul-29 07:33N 29°41' E 122°35'1311.8
2014-Jul-29 06:27N 29°28' E 122°37'13 4.3
2014-Jul-29 03:26N 29°15' E 122°37'5 5.2
2014-Jul-29 02:29N 29°10' E 122°38'0 0.4
2014-Jul-29 01:33N 29°10' E 122°38'9 6.6
2014-Jul-29 00:12N 29°02' E 122°34'39113.6
2014-Jul-27 19:25N 22°57' E 119°56'1315.5
2014-Jul-27 18:33N 22°45' E 120°03'1514.8
2014-Jul-27 17:33N 22°32' E 120°11'8 7.6
2014-Jul-27 16:34N 22°34' E 120°19'0 0.0
2014-Jul-27 15:30N 22°34' E 120°19'0 0.0
2014-Jul-27 14:30N 22°34' E 120°19'0 0.0
2014-Jul-27 13:30N 22°34' E 120°19'0 0.0
2014-Jul-27 12:30N 22°34' E 120°19'0 0.0
2014-Jul-27 11:24N 22°34' E 120°19'0 0.0
2014-Jul-27 10:30N 22°34' E 120°19'0 0.0
2014-Jul-27 09:30N 22°34' E 120°19'0 0.0
2014-Jul-27 08:18N 22°34' E 120°19'0 0.0
2014-Jul-27 07:12N 22°34' E 120°19'0 0.0
2014-Jul-27 06:30N 22°34' E 120°19'0 0.0
2014-Jul-27 05:30N 22°34' E 120°19'0 0.0
2014-Jul-27 04:30N 22°34' E 120°19'0 0.0
2014-Jul-27 03:30N 22°34' E 120°19'0 0.0
2014-Jul-27 02:30N 22°34' E 120°19'0 0.0
2014-Jul-27 01:24N 22°34' E 120°19'0 0.1
2014-Jul-27 00:33N 22°34' E 120°19'3 3.4
2014-Jul-26 23:33N 22°32' E 120°16'5 5.2
2014-Jul-26 22:33N 22°31' E 120°10'1312.9
2014-Jul-26 21:33N 22°43' E 120°04'1313.2
2014-Jul-26 20:33N 22°55' E 119°57'  

Dump ship's entire track history